INFORMAÇÕES METEOROLÓGICAS
METAR FOR SBCC
ADDS - METARS form results

(1859 UTC 17 January 2019)
Data provider http://aviationweather.gov/metar/data/
 
METAR text: SBCC 171800Z 06011KT 030V090 9999 BKN030 FEW035TCU SCT100 29/19 Q1014
Conditions at: SBCC (CACHIMBO , BR) observed 1800 UTC 17 January 2019
Temperature: 29.0°C (84°F)
Dewpoint: 19.0°C (66°F) [RH = 55%]
Pressure (altimeter): 29.94 inches Hg (1014.0 mb)
Winds: from the ENE (60 degrees) at 13 MPH (11 knots; 5.7 m/s)
Visibility: 6 or more miles (10+ km)
Ceiling: 3000 feet AGL
Clouds: broken clouds at 3000 feet AGL
few clouds at 3500 feet AGL
scattered clouds at 10000 feet AGL
Weather: no significant weather observed at this time

 MAPA DO AEROPORTO

 INFORMAÇÕES DA PISTA
Pista 12 Tamanho da pista 8527 ft Largura da pista 148 ft
Elevação da pista 0 ft Ranhura da pista 0 ft Proa da pista 0
Pista 30 Tamanho da pista 8527 ft Largura da pista 148 ft
Elevação da pista 0 ft Ranhura da pista 0 ft Proa da pista 0

 FREQUÊNCIAS DO AEROPORTO
Tipo AFIS Nome RDO Frequência 125.9 MHZ

 AUXÍLIOS DE NAVEGAÇÃO PRÓXIMOS AO AEROPORTO
Tipo VOR-DME Nome Cachimbo Frequência 115100 KHZ
Tipo NDB Nome Cachimbo Frequência 215 KHZ



Powered by Mercosul Lnhas Aereas